sensor_id;sensor_type;location;lat;lon;timestamp;P1;durP1;ratioP1;P2;durP2;ratioP2
73951;SDS011;62304;47.662;18.324;2023-02-07T00:00:43;60.45;;;23.30;;
73951;SDS011;62304;47.662;18.324;2023-02-07T00:03:46;63.08;;;23.08;;
73951;SDS011;62304;47.662;18.324;2023-02-07T00:06:50;59.20;;;22.97;;
73951;SDS011;62304;47.662;18.324;2023-02-07T00:09:53;62.70;;;23.27;;
73951;SDS011;62304;47.662;18.324;2023-02-07T00:12:56;60.85;;;23.05;;
73951;SDS011;62304;47.662;18.324;2023-02-07T00:15:59;58.93;;;22.67;;
73951;SDS011;62304;47.662;18.324;2023-02-07T00:19:02;57.67;;;23.77;;
73951;SDS011;62304;47.662;18.324;2023-02-07T00:22:05;64.93;;;24.20;;
73951;SDS011;62304;47.662;18.324;2023-02-07T00:25:08;60.97;;;24.37;;
73951;SDS011;62304;47.662;18.324;2023-02-07T00:28:11;56.00;;;22.15;;
73951;SDS011;62304;47.662;18.324;2023-02-07T00:31:16;67.53;;;24.48;;
73951;SDS011;62304;47.662;18.324;2023-02-07T00:34:21;80.72;;;25.73;;
73951;SDS011;62304;47.662;18.324;2023-02-07T00:37:24;67.97;;;24.40;;
73951;SDS011;62304;47.662;18.324;2023-02-07T00:40:28;63.90;;;22.10;;
73951;SDS011;62304;47.662;18.324;2023-02-07T00:43:31;63.95;;;22.90;;
73951;SDS011;62304;47.662;18.324;2023-02-07T00:46:35;59.13;;;21.43;;
73951;SDS011;62304;47.662;18.324;2023-02-07T00:49:38;64.22;;;22.35;;
73951;SDS011;62304;47.662;18.324;2023-02-07T00:52:41;52.95;;;22.00;;
73951;SDS011;62304;47.662;18.324;2023-02-07T00:55:44;58.85;;;22.70;;
73951;SDS011;62304;47.662;18.324;2023-02-07T00:58:47;62.13;;;22.05;;
73951;SDS011;62304;47.662;18.324;2023-02-07T01:01:52;52.55;;;18.58;;
73951;SDS011;62304;47.662;18.324;2023-02-07T01:04:55;47.22;;;19.55;;
73951;SDS011;62304;47.662;18.324;2023-02-07T01:07:57;50.57;;;18.70;;
73951;SDS011;62304;47.662;18.324;2023-02-07T01:11:01;50.72;;;19.42;;
73951;SDS011;62304;47.662;18.324;2023-02-07T01:14:06;50.75;;;18.52;;
73951;SDS011;62304;47.662;18.324;2023-02-07T01:17:09;44.77;;;19.17;;
73951;SDS011;62304;47.662;18.324;2023-02-07T01:20:12;34.70;;;14.98;;
73951;SDS011;62304;47.662;18.324;2023-02-07T01:23:15;48.40;;;17.98;;
73951;SDS011;62304;47.662;18.324;2023-02-07T01:26:18;51.88;;;17.90;;
73951;SDS011;62304;47.662;18.324;2023-02-07T01:29:21;48.60;;;18.15;;
73951;SDS011;62304;47.662;18.324;2023-02-07T01:32:24;44.45;;;16.20;;
73951;SDS011;62304;47.662;18.324;2023-02-07T01:35:28;38.22;;;16.33;;
73951;SDS011;62304;47.662;18.324;2023-02-07T01:38:30;46.47;;;17.43;;
73951;SDS011;62304;47.662;18.324;2023-02-07T01:41:34;45.05;;;17.05;;
73951;SDS011;62304;47.662;18.324;2023-02-07T01:47:40;36.23;;;15.50;;
73951;SDS011;62304;47.662;18.324;2023-02-07T01:50:44;33.88;;;14.45;;
73951;SDS011;62304;47.662;18.324;2023-02-07T01:53:51;47.38;;;16.35;;
73951;SDS011;62304;47.662;18.324;2023-02-07T01:56:59;38.00;;;15.00;;
73951;SDS011;62304;47.662;18.324;2023-02-07T02:00:07;42.95;;;15.18;;
73951;SDS011;62304;47.662;18.324;2023-02-07T02:03:15;39.40;;;14.60;;
73951;SDS011;62304;47.662;18.324;2023-02-07T02:06:19;36.15;;;14.98;;
73951;SDS011;62304;47.662;18.324;2023-02-07T02:09:23;32.20;;;11.97;;
73951;SDS011;62304;47.662;18.324;2023-02-07T02:19:50;17.63;;;7.90;;
73951;SDS011;62304;47.662;18.324;2023-02-07T02:30:04;37.75;;;14.65;;
73951;SDS011;62304;47.662;18.324;2023-02-07T02:43:12;46.37;;;15.47;;
73951;SDS011;62304;47.662;18.324;2023-02-07T02:46:23;42.00;;;14.60;;
73951;SDS011;62304;47.662;18.324;2023-02-07T02:49:31;37.05;;;15.15;;
73951;SDS011;62304;47.662;18.324;2023-02-07T02:52:36;38.87;;;14.60;;
73951;SDS011;62304;47.662;18.324;2023-02-07T03:13:09;35.83;;;14.10;;
73951;SDS011;62304;47.662;18.324;2023-02-07T03:17:04;35.17;;;13.07;;
73951;SDS011;62304;47.662;18.324;2023-02-07T03:19:54;34.78;;;11.27;;
73951;SDS011;62304;47.662;18.324;2023-02-07T03:23:13;42.65;;;13.07;;
73951;SDS011;62304;47.662;18.324;2023-02-07T03:26:19;31.43;;;13.70;;
73951;SDS011;62304;47.662;18.324;2023-02-07T03:29:28;34.80;;;13.35;;
73951;SDS011;62304;47.662;18.324;2023-02-07T03:32:34;21.23;;;9.13;;
73951;SDS011;62304;47.662;18.324;2023-02-07T03:35:47;25.52;;;10.90;;
73951;SDS011;62304;47.662;18.324;2023-02-07T03:38:57;32.03;;;13.07;;
73951;SDS011;62304;47.662;18.324;2023-02-07T03:42:05;33.40;;;12.95;;
73951;SDS011;62304;47.662;18.324;2023-02-07T03:45:16;35.55;;;13.73;;
73951;SDS011;62304;47.662;18.324;2023-02-07T03:48:22;31.20;;;11.90;;
73951;SDS011;62304;47.662;18.324;2023-02-07T03:51:25;38.38;;;13.95;;
73951;SDS011;62304;47.662;18.324;2023-02-07T03:54:28;42.35;;;15.90;;
73951;SDS011;62304;47.662;18.324;2023-02-07T03:57:31;16.43;;;9.13;;
73951;SDS011;62304;47.662;18.324;2023-02-07T04:00:34;15.25;;;6.30;;
73951;SDS011;62304;47.662;18.324;2023-02-07T04:03:37;29.00;;;13.05;;
73951;SDS011;62304;47.662;18.324;2023-02-07T04:06:40;30.52;;;12.80;;
73951;SDS011;62304;47.662;18.324;2023-02-07T04:09:43;31.77;;;12.98;;
73951;SDS011;62304;47.662;18.324;2023-02-07T04:12:46;29.08;;;11.90;;
73951;SDS011;62304;47.662;18.324;2023-02-07T04:15:49;33.88;;;13.23;;
73951;SDS011;62304;47.662;18.324;2023-02-07T04:18:52;37.63;;;14.03;;
73951;SDS011;62304;47.662;18.324;2023-02-07T04:21:55;33.58;;;13.85;;
73951;SDS011;62304;47.662;18.324;2023-02-07T04:24:58;31.12;;;12.70;;
73951;SDS011;62304;47.662;18.324;2023-02-07T04:28:01;31.77;;;13.00;;
73951;SDS011;62304;47.662;18.324;2023-02-07T04:31:03;33.13;;;13.27;;
73951;SDS011;62304;47.662;18.324;2023-02-07T04:34:07;35.35;;;12.85;;
73951;SDS011;62304;47.662;18.324;2023-02-07T04:37:11;30.50;;;12.68;;
73951;SDS011;62304;47.662;18.324;2023-02-07T04:40:14;31.62;;;12.60;;
73951;SDS011;62304;47.662;18.324;2023-02-07T04:43:17;31.90;;;13.13;;
73951;SDS011;62304;47.662;18.324;2023-02-07T04:46:20;34.80;;;13.62;;
73951;SDS011;62304;47.662;18.324;2023-02-07T04:49:22;34.97;;;12.43;;
73951;SDS011;62304;47.662;18.324;2023-02-07T04:52:26;32.92;;;12.05;;
73951;SDS011;62304;47.662;18.324;2023-02-07T04:55:28;30.90;;;13.07;;
73951;SDS011;62304;47.662;18.324;2023-02-07T04:58:31;37.10;;;14.67;;
73951;SDS011;62304;47.662;18.324;2023-02-07T05:01:34;33.42;;;13.70;;
73951;SDS011;62304;47.662;18.324;2023-02-07T05:04:37;37.25;;;13.75;;
73951;SDS011;62304;47.662;18.324;2023-02-07T05:07:40;34.97;;;12.23;;
73951;SDS011;62304;47.662;18.324;2023-02-07T05:10:43;45.03;;;15.82;;
73951;SDS011;62304;47.662;18.324;2023-02-07T05:13:46;46.50;;;15.77;;
73951;SDS011;62304;47.662;18.324;2023-02-07T05:16:49;33.35;;;13.88;;
73951;SDS011;62304;47.662;18.324;2023-02-07T05:19:52;33.97;;;14.53;;
73951;SDS011;62304;47.662;18.324;2023-02-07T05:22:55;43.70;;;16.30;;
73951;SDS011;62304;47.662;18.324;2023-02-07T05:25:58;31.45;;;14.50;;
73951;SDS011;62304;47.662;18.324;2023-02-07T05:29:01;33.27;;;13.30;;
73951;SDS011;62304;47.662;18.324;2023-02-07T05:32:04;43.35;;;15.68;;
73951;SDS011;62304;47.662;18.324;2023-02-07T05:35:25;47.08;;;16.15;;
73951;SDS011;62304;47.662;18.324;2023-02-07T05:38:28;42.15;;;16.73;;
73951;SDS011;62304;47.662;18.324;2023-02-07T05:41:31;57.28;;;21.12;;
73951;SDS011;62304;47.662;18.324;2023-02-07T05:44:34;50.78;;;19.52;;
73951;SDS011;62304;47.662;18.324;2023-02-07T05:47:37;38.53;;;16.37;;
73951;SDS011;62304;47.662;18.324;2023-02-07T05:50:40;27.10;;;11.87;;
73951;SDS011;62304;47.662;18.324;2023-02-07T05:53:43;55.10;;;17.17;;
73951;SDS011;62304;47.662;18.324;2023-02-07T05:56:46;53.85;;;19.77;;
73951;SDS011;62304;47.662;18.324;2023-02-07T05:59:49;50.13;;;19.67;;
73951;SDS011;62304;47.662;18.324;2023-02-07T06:02:52;52.33;;;20.48;;
73951;SDS011;62304;47.662;18.324;2023-02-07T06:05:55;87.43;;;26.90;;
73951;SDS011;62304;47.662;18.324;2023-02-07T06:08:58;89.90;;;27.58;;
73951;SDS011;62304;47.662;18.324;2023-02-07T06:12:01;61.45;;;19.83;;
73951;SDS011;62304;47.662;18.324;2023-02-07T06:15:06;33.55;;;15.73;;
73951;SDS011;62304;47.662;18.324;2023-02-07T06:18:10;52.08;;;19.85;;
73951;SDS011;62304;47.662;18.324;2023-02-07T06:21:12;58.47;;;20.80;;
73951;SDS011;62304;47.662;18.324;2023-02-07T06:24:15;36.30;;;14.23;;
73951;SDS011;62304;47.662;18.324;2023-02-07T06:27:18;51.83;;;20.05;;
73951;SDS011;62304;47.662;18.324;2023-02-07T06:30:22;59.17;;;23.67;;
73951;SDS011;62304;47.662;18.324;2023-02-07T06:33:25;46.15;;;16.52;;
73951;SDS011;62304;47.662;18.324;2023-02-07T06:36:28;34.60;;;13.50;;
73951;SDS011;62304;47.662;18.324;2023-02-07T06:39:31;22.15;;;10.52;;
73951;SDS011;62304;47.662;18.324;2023-02-07T06:42:34;93.32;;;30.42;;
73951;SDS011;62304;47.662;18.324;2023-02-07T06:45:37;31.67;;;14.35;;
73951;SDS011;62304;47.662;18.324;2023-02-07T06:48:40;37.15;;;14.20;;
73951;SDS011;62304;47.662;18.324;2023-02-07T06:51:43;38.63;;;15.83;;
73951;SDS011;62304;47.662;18.324;2023-02-07T06:54:46;48.40;;;16.62;;
73951;SDS011;62304;47.662;18.324;2023-02-07T06:57:49;46.63;;;17.45;;
73951;SDS011;62304;47.662;18.324;2023-02-07T07:00:52;44.43;;;19.20;;
73951;SDS011;62304;47.662;18.324;2023-02-07T07:03:55;45.03;;;18.87;;
73951;SDS011;62304;47.662;18.324;2023-02-07T07:06:58;45.22;;;20.12;;
73951;SDS011;62304;47.662;18.324;2023-02-07T07:10:00;43.30;;;18.58;;
73951;SDS011;62304;47.662;18.324;2023-02-07T07:13:03;53.17;;;19.98;;
73951;SDS011;62304;47.662;18.324;2023-02-07T07:16:06;58.03;;;21.27;;
73951;SDS011;62304;47.662;18.324;2023-02-07T07:19:09;35.60;;;16.42;;
73951;SDS011;62304;47.662;18.324;2023-02-07T07:22:13;57.57;;;24.20;;
73951;SDS011;62304;47.662;18.324;2023-02-07T07:25:16;50.85;;;20.40;;
73951;SDS011;62304;47.662;18.324;2023-02-07T07:28:19;29.05;;;13.75;;
73951;SDS011;62304;47.662;18.324;2023-02-07T07:31:22;35.77;;;11.87;;
73951;SDS011;62304;47.662;18.324;2023-02-07T07:34:25;20.67;;;7.40;;
73951;SDS011;62304;47.662;18.324;2023-02-07T07:37:29;11.73;;;6.72;;
73951;SDS011;62304;47.662;18.324;2023-02-07T07:40:32;33.47;;;12.98;;
73951;SDS011;62304;47.662;18.324;2023-02-07T07:43:35;36.55;;;16.95;;
73951;SDS011;62304;47.662;18.324;2023-02-07T07:46:38;20.88;;;8.93;;
73951;SDS011;62304;47.662;18.324;2023-02-07T07:49:41;48.20;;;19.30;;
73951;SDS011;62304;47.662;18.324;2023-02-07T07:52:44;28.10;;;10.57;;
73951;SDS011;62304;47.662;18.324;2023-02-07T07:55:48;24.95;;;10.95;;
73951;SDS011;62304;47.662;18.324;2023-02-07T07:58:51;17.00;;;6.90;;
73951;SDS011;62304;47.662;18.324;2023-02-07T08:01:55;44.03;;;19.17;;
73951;SDS011;62304;47.662;18.324;2023-02-07T08:04:58;59.45;;;22.08;;
73951;SDS011;62304;47.662;18.324;2023-02-07T08:08:00;18.73;;;10.10;;
73951;SDS011;62304;47.662;18.324;2023-02-07T08:11:04;44.97;;;18.73;;
73951;SDS011;62304;47.662;18.324;2023-02-07T08:14:08;13.98;;;7.10;;
73951;SDS011;62304;47.662;18.324;2023-02-07T08:17:11;41.30;;;16.05;;
73951;SDS011;62304;47.662;18.324;2023-02-07T08:20:14;13.25;;;7.70;;
73951;SDS011;62304;47.662;18.324;2023-02-07T08:23:18;39.63;;;17.37;;
73951;SDS011;62304;47.662;18.324;2023-02-07T08:26:21;23.80;;;11.77;;
73951;SDS011;62304;47.662;18.324;2023-02-07T08:29:24;50.58;;;20.58;;
73951;SDS011;62304;47.662;18.324;2023-02-07T08:32:26;38.03;;;15.73;;
73951;SDS011;62304;47.662;18.324;2023-02-07T08:35:31;32.22;;;14.82;;
73951;SDS011;62304;47.662;18.324;2023-02-07T08:38:33;52.15;;;21.87;;
73951;SDS011;62304;47.662;18.324;2023-02-07T08:41:37;29.52;;;14.05;;
73951;SDS011;62304;47.662;18.324;2023-02-07T08:44:39;51.93;;;20.80;;
73951;SDS011;62304;47.662;18.324;2023-02-07T08:47:43;28.25;;;12.52;;
73951;SDS011;62304;47.662;18.324;2023-02-07T08:50:46;62.65;;;24.00;;
73951;SDS011;62304;47.662;18.324;2023-02-07T08:53:49;15.85;;;7.05;;
73951;SDS011;62304;47.662;18.324;2023-02-07T08:56:52;20.10;;;8.30;;
73951;SDS011;62304;47.662;18.324;2023-02-07T08:59:55;37.25;;;18.10;;
73951;SDS011;62304;47.662;18.324;2023-02-07T09:02:58;27.08;;;12.20;;
73951;SDS011;62304;47.662;18.324;2023-02-07T09:06:01;36.17;;;16.40;;
73951;SDS011;62304;47.662;18.324;2023-02-07T09:09:04;14.60;;;7.40;;
73951;SDS011;62304;47.662;18.324;2023-02-07T09:12:08;32.93;;;15.27;;
73951;SDS011;62304;47.662;18.324;2023-02-07T09:15:11;16.30;;;8.25;;
73951;SDS011;62304;47.662;18.324;2023-02-07T09:18:14;46.25;;;17.60;;
73951;SDS011;62304;47.662;18.324;2023-02-07T09:21:17;37.05;;;16.75;;
73951;SDS011;62304;47.662;18.324;2023-02-07T09:24:21;40.85;;;18.25;;
73951;SDS011;62304;47.662;18.324;2023-02-07T09:27:24;27.90;;;12.70;;
73951;SDS011;62304;47.662;18.324;2023-02-07T09:30:27;35.92;;;16.90;;
73951;SDS011;62304;47.662;18.324;2023-02-07T09:33:30;21.52;;;8.68;;
73951;SDS011;62304;47.662;18.324;2023-02-07T09:36:33;26.70;;;12.18;;
73951;SDS011;62304;47.662;18.324;2023-02-07T09:39:36;28.33;;;12.45;;
73951;SDS011;62304;47.662;18.324;2023-02-07T09:42:56;37.07;;;17.07;;
73951;SDS011;62304;47.662;18.324;2023-02-07T09:46:11;21.52;;;10.50;;
73951;SDS011;62304;47.662;18.324;2023-02-07T09:53:24;28.00;;;12.02;;
73951;SDS011;62304;47.662;18.324;2023-02-07T09:56:29;24.23;;;9.65;;
73951;SDS011;62304;47.662;18.324;2023-02-07T09:59:51;30.67;;;13.03;;
73951;SDS011;62304;47.662;18.324;2023-02-07T10:06:14;43.13;;;17.58;;
73951;SDS011;62304;47.662;18.324;2023-02-07T10:09:28;34.53;;;14.30;;
73951;SDS011;62304;47.662;18.324;2023-02-07T10:26:36;35.65;;;15.10;;
73951;SDS011;62304;47.662;18.324;2023-02-07T10:29:48;29.17;;;15.13;;
73951;SDS011;62304;47.662;18.324;2023-02-07T10:32:52;28.93;;;13.23;;
73951;SDS011;62304;47.662;18.324;2023-02-07T10:36:01;20.37;;;10.25;;
73951;SDS011;62304;47.662;18.324;2023-02-07T10:42:30;20.83;;;9.57;;
73951;SDS011;62304;47.662;18.324;2023-02-07T10:45:38;37.45;;;19.08;;
73951;SDS011;62304;47.662;18.324;2023-02-07T10:48:43;31.97;;;13.80;;
73951;SDS011;62304;47.662;18.324;2023-02-07T10:51:49;31.15;;;14.73;;
73951;SDS011;62304;47.662;18.324;2023-02-07T10:58:00;18.20;;;9.40;;
73951;SDS011;62304;47.662;18.324;2023-02-07T11:01:20;22.17;;;10.95;;
73951;SDS011;62304;47.662;18.324;2023-02-07T11:04:38;28.37;;;14.10;;
73951;SDS011;62304;47.662;18.324;2023-02-07T11:07:57;27.33;;;13.65;;
73951;SDS011;62304;47.662;18.324;2023-02-07T11:14:27;17.77;;;8.35;;
73951;SDS011;62304;47.662;18.324;2023-02-07T11:17:30;28.60;;;14.32;;
73951;SDS011;62304;47.662;18.324;2023-02-07T11:20:37;29.23;;;14.17;;
73951;SDS011;62304;47.662;18.324;2023-02-07T11:23:42;25.12;;;11.90;;
73951;SDS011;62304;47.662;18.324;2023-02-07T11:26:52;26.30;;;13.95;;
73951;SDS011;62304;47.662;18.324;2023-02-07T11:29:56;26.37;;;12.52;;
73951;SDS011;62304;47.662;18.324;2023-02-07T11:33:02;27.83;;;11.40;;
73951;SDS011;62304;47.662;18.324;2023-02-07T11:36:12;26.30;;;13.37;;
73951;SDS011;62304;47.662;18.324;2023-02-07T11:39:23;33.33;;;14.52;;
73951;SDS011;62304;47.662;18.324;2023-02-07T11:42:29;27.10;;;13.57;;
73951;SDS011;62304;47.662;18.324;2023-02-07T11:45:33;26.02;;;13.52;;
73951;SDS011;62304;47.662;18.324;2023-02-07T11:48:37;28.83;;;13.57;;
73951;SDS011;62304;47.662;18.324;2023-02-07T11:51:42;24.53;;;12.67;;
73951;SDS011;62304;47.662;18.324;2023-02-07T11:54:50;26.60;;;13.95;;
73951;SDS011;62304;47.662;18.324;2023-02-07T11:57:58;25.95;;;13.45;;
73951;SDS011;62304;47.662;18.324;2023-02-07T12:01:25;24.63;;;13.98;;
73951;SDS011;62304;47.662;18.324;2023-02-07T12:04:36;26.60;;;13.77;;
73951;SDS011;62304;47.662;18.324;2023-02-07T12:07:41;24.90;;;13.10;;
73951;SDS011;62304;47.662;18.324;2023-02-07T12:10:49;25.33;;;14.82;;
73951;SDS011;62304;47.662;18.324;2023-02-07T12:13:56;29.37;;;13.75;;
73951;SDS011;62304;47.662;18.324;2023-02-07T12:17:07;22.42;;;11.52;;
73951;SDS011;62304;47.662;18.324;2023-02-07T12:20:20;22.02;;;11.60;;
73951;SDS011;62304;47.662;18.324;2023-02-07T12:30:18;23.98;;;11.50;;
73951;SDS011;62304;47.662;18.324;2023-02-07T12:33:41;28.83;;;15.00;;
73951;SDS011;62304;47.662;18.324;2023-02-07T12:36:53;23.23;;;10.40;;
73951;SDS011;62304;47.662;18.324;2023-02-07T12:40:03;24.90;;;13.57;;
73951;SDS011;62304;47.662;18.324;2023-02-07T12:43:26;30.17;;;14.95;;
73951;SDS011;62304;47.662;18.324;2023-02-07T12:46:50;24.35;;;13.82;;
73951;SDS011;62304;47.662;18.324;2023-02-07T13:11:06;25.02;;;13.70;;
73951;SDS011;62304;47.662;18.324;2023-02-07T13:18:06;23.05;;;11.48;;
73951;SDS011;62304;47.662;18.324;2023-02-07T13:21:15;25.52;;;12.45;;
73951;SDS011;62304;47.662;18.324;2023-02-07T13:24:31;24.35;;;12.30;;
73951;SDS011;62304;47.662;18.324;2023-02-07T13:27:36;20.15;;;10.52;;
73951;SDS011;62304;47.662;18.324;2023-02-07T13:30:42;23.17;;;11.77;;
73951;SDS011;62304;47.662;18.324;2023-02-07T13:33:49;26.83;;;12.93;;
73951;SDS011;62304;47.662;18.324;2023-02-07T13:36:53;27.42;;;13.62;;
73951;SDS011;62304;47.662;18.324;2023-02-07T13:44:46;26.55;;;11.82;;
73951;SDS011;62304;47.662;18.324;2023-02-07T13:47:36;22.87;;;10.70;;
73951;SDS011;62304;47.662;18.324;2023-02-07T13:54:27;25.30;;;11.75;;
73951;SDS011;62304;47.662;18.324;2023-02-07T14:07:02;26.95;;;12.15;;
73951;SDS011;62304;47.662;18.324;2023-02-07T14:10:31;28.70;;;11.43;;
73951;SDS011;62304;47.662;18.324;2023-02-07T14:13:35;25.37;;;10.20;;
73951;SDS011;62304;47.662;18.324;2023-02-07T14:16:43;26.53;;;11.17;;
73951;SDS011;62304;47.662;18.324;2023-02-07T14:19:58;29.33;;;12.43;;
73951;SDS011;62304;47.662;18.324;2023-02-07T14:23:11;29.87;;;12.77;;
73951;SDS011;62304;47.662;18.324;2023-02-07T14:30:18;28.25;;;12.20;;
73951;SDS011;62304;47.662;18.324;2023-02-07T14:36:40;14.25;;;5.95;;
73951;SDS011;62304;47.662;18.324;2023-02-07T14:39:44;24.77;;;10.93;;
73951;SDS011;62304;47.662;18.324;2023-02-07T14:42:58;44.22;;;17.73;;
73951;SDS011;62304;47.662;18.324;2023-02-07T14:46:06;39.97;;;16.35;;
73951;SDS011;62304;47.662;18.324;2023-02-07T14:52:45;33.85;;;15.05;;
73951;SDS011;62304;47.662;18.324;2023-02-07T14:55:49;37.35;;;16.60;;
73951;SDS011;62304;47.662;18.324;2023-02-07T14:58:57;31.35;;;14.82;;
73951;SDS011;62304;47.662;18.324;2023-02-07T15:05:31;32.22;;;13.32;;
73951;SDS011;62304;47.662;18.324;2023-02-07T15:08:38;13.68;;;6.78;;
73951;SDS011;62304;47.662;18.324;2023-02-07T15:11:41;28.40;;;12.30;;
73951;SDS011;62304;47.662;18.324;2023-02-07T15:14:44;32.97;;;12.60;;
73951;SDS011;62304;47.662;18.324;2023-02-07T15:17:47;30.53;;;11.13;;
73951;SDS011;62304;47.662;18.324;2023-02-07T15:20:53;32.58;;;12.65;;
73951;SDS011;62304;47.662;18.324;2023-02-07T15:24:23;29.90;;;11.15;;
73951;SDS011;62304;47.662;18.324;2023-02-07T15:27:57;28.87;;;11.07;;
73951;SDS011;62304;47.662;18.324;2023-02-07T15:31:11;33.45;;;15.25;;
73951;SDS011;62304;47.662;18.324;2023-02-07T15:34:21;30.60;;;13.32;;
73951;SDS011;62304;47.662;18.324;2023-02-07T15:37:25;37.53;;;15.75;;
73951;SDS011;62304;47.662;18.324;2023-02-07T15:40:29;33.85;;;13.60;;
73951;SDS011;62304;47.662;18.324;2023-02-07T15:43:32;35.50;;;14.35;;
73951;SDS011;62304;47.662;18.324;2023-02-07T15:49:57;39.90;;;14.87;;
73951;SDS011;62304;47.662;18.324;2023-02-07T15:53:03;36.50;;;14.93;;
73951;SDS011;62304;47.662;18.324;2023-02-07T15:56:11;35.28;;;15.20;;
73951;SDS011;62304;47.662;18.324;2023-02-07T15:59:17;33.88;;;13.98;;
73951;SDS011;62304;47.662;18.324;2023-02-07T16:02:26;36.35;;;13.52;;
73951;SDS011;62304;47.662;18.324;2023-02-07T16:05:33;31.58;;;13.65;;
73951;SDS011;62304;47.662;18.324;2023-02-07T16:08:40;31.75;;;13.10;;
73951;SDS011;62304;47.662;18.324;2023-02-07T16:11:44;30.50;;;13.57;;
73951;SDS011;62304;47.662;18.324;2023-02-07T16:14:47;35.40;;;15.02;;
73951;SDS011;62304;47.662;18.324;2023-02-07T16:17:51;47.45;;;16.15;;
73951;SDS011;62304;47.662;18.324;2023-02-07T16:20:54;38.92;;;15.07;;
73951;SDS011;62304;47.662;18.324;2023-02-07T16:24:04;50.72;;;17.60;;
73951;SDS011;62304;47.662;18.324;2023-02-07T16:27:15;51.35;;;20.58;;
73951;SDS011;62304;47.662;18.324;2023-02-07T16:30:26;59.20;;;22.20;;
73951;SDS011;62304;47.662;18.324;2023-02-07T16:33:37;66.03;;;23.58;;
73951;SDS011;62304;47.662;18.324;2023-02-07T16:36:44;60.77;;;22.83;;
73951;SDS011;62304;47.662;18.324;2023-02-07T16:39:53;47.10;;;19.87;;
73951;SDS011;62304;47.662;18.324;2023-02-07T16:42:56;57.35;;;22.30;;
73951;SDS011;62304;47.662;18.324;2023-02-07T16:46:07;62.85;;;23.27;;
73951;SDS011;62304;47.662;18.324;2023-02-07T16:49:14;67.10;;;25.50;;
73951;SDS011;62304;47.662;18.324;2023-02-07T16:52:18;65.62;;;25.95;;
73951;SDS011;62304;47.662;18.324;2023-02-07T16:55:22;55.58;;;21.80;;
73951;SDS011;62304;47.662;18.324;2023-02-07T16:58:31;68.40;;;27.65;;
73951;SDS011;62304;47.662;18.324;2023-02-07T17:01:35;72.33;;;26.30;;
73951;SDS011;62304;47.662;18.324;2023-02-07T17:04:38;75.62;;;27.98;;
73951;SDS011;62304;47.662;18.324;2023-02-07T17:07:42;124.12;;;47.17;;
73951;SDS011;62304;47.662;18.324;2023-02-07T17:10:46;108.68;;;41.20;;
73951;SDS011;62304;47.662;18.324;2023-02-07T17:13:56;112.83;;;38.20;;
73951;SDS011;62304;47.662;18.324;2023-02-07T17:17:00;97.10;;;34.85;;
73951;SDS011;62304;47.662;18.324;2023-02-07T17:20:23;118.03;;;42.22;;
73951;SDS011;62304;47.662;18.324;2023-02-07T17:23:27;111.10;;;40.60;;
73951;SDS011;62304;47.662;18.324;2023-02-07T17:26:30;115.10;;;44.00;;
73951;SDS011;62304;47.662;18.324;2023-02-07T17:29:34;110.18;;;42.97;;
73951;SDS011;62304;47.662;18.324;2023-02-07T17:32:37;105.18;;;39.63;;
73951;SDS011;62304;47.662;18.324;2023-02-07T17:35:42;114.75;;;43.53;;
73951;SDS011;62304;47.662;18.324;2023-02-07T17:38:46;109.03;;;42.00;;
73951;SDS011;62304;47.662;18.324;2023-02-07T17:41:53;112.12;;;43.17;;
73951;SDS011;62304;47.662;18.324;2023-02-07T17:44:57;111.18;;;42.13;;
73951;SDS011;62304;47.662;18.324;2023-02-07T17:48:01;113.55;;;39.75;;
73951;SDS011;62304;47.662;18.324;2023-02-07T17:51:06;110.10;;;40.17;;
73951;SDS011;62304;47.662;18.324;2023-02-07T17:54:10;105.45;;;39.75;;
73951;SDS011;62304;47.662;18.324;2023-02-07T17:57:14;122.28;;;45.08;;
73951;SDS011;62304;47.662;18.324;2023-02-07T18:00:23;124.30;;;45.60;;
73951;SDS011;62304;47.662;18.324;2023-02-07T18:03:32;125.70;;;45.60;;
73951;SDS011;62304;47.662;18.324;2023-02-07T18:06:36;125.87;;;44.33;;
73951;SDS011;62304;47.662;18.324;2023-02-07T18:09:41;122.70;;;44.30;;
73951;SDS011;62304;47.662;18.324;2023-02-07T18:12:47;106.43;;;38.17;;
73951;SDS011;62304;47.662;18.324;2023-02-07T18:15:55;113.18;;;41.17;;
73951;SDS011;62304;47.662;18.324;2023-02-07T18:18:59;110.47;;;38.90;;
73951;SDS011;62304;47.662;18.324;2023-02-07T18:22:06;121.32;;;42.47;;
73951;SDS011;62304;47.662;18.324;2023-02-07T18:25:11;127.37;;;44.67;;
73951;SDS011;62304;47.662;18.324;2023-02-07T18:28:18;115.05;;;42.03;;
73951;SDS011;62304;47.662;18.324;2023-02-07T18:31:23;116.88;;;43.60;;
73951;SDS011;62304;47.662;18.324;2023-02-07T18:34:27;134.45;;;47.00;;
73951;SDS011;62304;47.662;18.324;2023-02-07T18:37:32;142.33;;;47.30;;
73951;SDS011;62304;47.662;18.324;2023-02-07T18:40:38;148.73;;;49.65;;
73951;SDS011;62304;47.662;18.324;2023-02-07T18:43:42;143.62;;;49.80;;
73951;SDS011;62304;47.662;18.324;2023-02-07T18:46:47;198.53;;;66.13;;
73951;SDS011;62304;47.662;18.324;2023-02-07T18:49:52;187.35;;;63.65;;
73951;SDS011;62304;47.662;18.324;2023-02-07T18:52:58;201.18;;;68.18;;
73951;SDS011;62304;47.662;18.324;2023-02-07T18:56:11;201.02;;;63.92;;
73951;SDS011;62304;47.662;18.324;2023-02-07T18:59:21;160.43;;;55.50;;
73951;SDS011;62304;47.662;18.324;2023-02-07T19:02:26;129.60;;;45.80;;
73951;SDS011;62304;47.662;18.324;2023-02-07T19:05:31;116.57;;;40.83;;
73951;SDS011;62304;47.662;18.324;2023-02-07T19:08:36;94.13;;;37.37;;
73951;SDS011;62304;47.662;18.324;2023-02-07T19:11:40;95.65;;;36.25;;
73951;SDS011;62304;47.662;18.324;2023-02-07T19:14:44;96.85;;;36.65;;
73951;SDS011;62304;47.662;18.324;2023-02-07T19:17:50;87.60;;;32.38;;
73951;SDS011;62304;47.662;18.324;2023-02-07T19:21:11;99.25;;;36.25;;
73951;SDS011;62304;47.662;18.324;2023-02-07T19:24:18;84.35;;;33.28;;
73951;SDS011;62304;47.662;18.324;2023-02-07T19:27:23;82.22;;;32.20;;
73951;SDS011;62304;47.662;18.324;2023-02-07T19:30:28;99.03;;;32.77;;
73951;SDS011;62304;47.662;18.324;2023-02-07T19:33:34;89.28;;;35.35;;
73951;SDS011;62304;47.662;18.324;2023-02-07T19:36:42;80.03;;;31.98;;
73951;SDS011;62304;47.662;18.324;2023-02-07T19:39:46;89.78;;;34.85;;
73951;SDS011;62304;47.662;18.324;2023-02-07T19:42:52;73.85;;;31.05;;
73951;SDS011;62304;47.662;18.324;2023-02-07T19:45:56;102.93;;;37.60;;
73951;SDS011;62304;47.662;18.324;2023-02-07T19:49:02;112.60;;;40.97;;
73951;SDS011;62304;47.662;18.324;2023-02-07T19:52:07;99.33;;;35.60;;
73951;SDS011;62304;47.662;18.324;2023-02-07T19:55:14;103.43;;;40.30;;
73951;SDS011;62304;47.662;18.324;2023-02-07T19:58:18;105.87;;;38.80;;
73951;SDS011;62304;47.662;18.324;2023-02-07T20:01:22;106.93;;;43.00;;
73951;SDS011;62304;47.662;18.324;2023-02-07T20:04:28;110.50;;;40.90;;
73951;SDS011;62304;47.662;18.324;2023-02-07T20:07:32;96.87;;;38.65;;
73951;SDS011;62304;47.662;18.324;2023-02-07T20:10:40;112.28;;;42.05;;
73951;SDS011;62304;47.662;18.324;2023-02-07T20:13:49;95.85;;;36.78;;